Delta Virtual Airport Information Service

Memphis International Airport

ICAO: KMEM Country: United States
Latitude: 35.0424 Longitude: -89.9766
Latest Arrival : FDX814 (B) (KORD-KMEM) Latest Departure : FDX1405 (1) (KMEM-KORD)


WX CaptureLIVE
Data provided by noaa.gov | Fetched at 22:59:15

METAR : KMEM 250254Z 12009KT 10SM FEW250 27/21 A2994 RMK AO2 SLP134 T02670206 51015 $

TAF : KMEM 250259Z 2503/2606 14008KT P6SM VCSH FEW250 FM251100 14006KT P6SM FEW050 FEW250 FM252000 15005KT 6SM SHRA VCTS SCT090CB OVC250


Runway Data for KMEM
Data provided by openaviationdata.com

Runway ID Mag Var Hdg Length Elevation Surface ILS Freq ILS Id ILS Slope
9 0 91° 8936 ft 288 ft Asphalt 109.5 IMEM 3
18L 0 178° 9015 ft 288 ft Concrete 111.15 IEXS 3
18R 0 178° 9335 ft 288 ft Concrete 109.9 IOOI 3
18C 0 178° 11138 ft 288 ft Concrete 111.95 ISDU 3
27 0 271° 8936 ft 288 ft Asphalt 108.7 IJIM 3
36L 0 358° 9335 ft 288 ft Concrete 108.9 IOHN 3
36R 0 358° 9015 ft 288 ft Concrete 111.35 IMYO 3
36C 0 358° 11138 ft 288 ft Concrete 110.5 ITSE 3

Memphis International Airport, United States
Use only for reference purposes



Not for navigational purposes.